^^
Datos históricos de la estación: Murcia-Puente Tocinos
Diario Informe para Julio 14, 2019 Unidades:  Ingés    Métrico   Ambas
Diario Semanal Mensual Anual
  Máxima: Mínima: Promedio:
Temperatura: 98.8 °F 75.9 °F 84.9 °F
Punto de rocio: 71.6 °F 51.3 °F 63.1 °F
Humedad: 81% 22.1% 54%
Velocidad viento: 13.5mph 2mph 6.9mph
Racha viento: 26.5mph - -
Viento- - Sur
Presión: 29.8 in 29.7 in -
Precipitación: 0 in    
 
 
Tabla de datos para Julio 14, 2019
Hora Temperatura Punto de rocio Presión Viento Velocidad viento Racha viento Humedad Intensidad lluvia(por hora) Nubes
00:04 78.6 °F 70.7 °F 29.8 in NE 5.4 mph 10.4 mph 77% 0 in
00:09 78.4 °F 70.5 °F 29.8 in NE 5.6 mph 10 mph 77% 0 in
00:14 78.4 °F 70.5 °F 29.8 in NE 5.9 mph 9 mph 77% 0 in
00:19 78.4 °F 70.5 °F 29.8 in NNE 5.4 mph 8 mph 77% 0 in
00:24 78.4 °F 70.5 °F 29.8 in NE 4.3 mph 7.4 mph 77% 0 in
00:29 78.3 °F 70.7 °F 29.8 in NE 4.6 mph 9.2 mph 77.6% 0 in
00:34 78.3 °F 70.9 °F 29.8 in NE 5.2 mph 9 mph 78% 0 in
00:39 78.3 °F 70.9 °F 29.8 in NE 4.9 mph 7 mph 78% 0 in
00:44 78.3 °F 70.9 °F 29.8 in NE 4.3 mph 8.1 mph 78% 0 in
00:49 78.3 °F 70.9 °F 29.8 in NNE 4.3 mph 8 mph 78% 0 in
00:54 78.3 °F 70.7 °F 29.8 in NNE 4.3 mph 6.2 mph 78% 0 in
00:59 78.1 °F 70.9 °F 29.8 in NNE 4 mph 6 mph 78.5% 0 in
01:04 78.1 °F 71.1 °F 29.8 in NNE 3.6 mph 6 mph 79% 0 in
01:09 78.1 °F 70.9 °F 29.8 in NNE 3.6 mph 6.2 mph 79% 0 in
01:14 77.9 °F 70.9 °F 29.8 in NE 3.6 mph 6 mph 79% 0 in
01:19 77.7 °F 70.7 °F 29.8 in NE 3.6 mph 6 mph 79% 0 in
01:24 77.7 °F 71.1 °F 29.8 in NE 3.6 mph 6.9 mph 79.9% 0 in
01:29 77.7 °F 71.1 °F 29.8 in NE 3.4 mph 7 mph 80% 0 in
01:34 77.7 °F 71.1 °F 29.8 in NE 3.1 mph 5.9 mph 80% 0 in
01:39 77.7 °F 71.1 °F 29.8 in NE 3.1 mph 6 mph 80% 0 in
01:44 77.7 °F 71.1 °F 29.8 in NE 3.1 mph 6 mph 80% 0 in
01:49 77.7 °F 71.1 °F 29.8 in NE 3 mph 6 mph 80% 0 in
01:54 77.7 °F 71.1 °F 29.8 in NE 2.9 mph 6 mph 80% 0 in
01:59 77.7 °F 71.1 °F 29.8 in NE 3 mph 5 mph 80% 0 in
02:04 77.7 °F 71.1 °F 29.8 in NE 3.1 mph 5 mph 80% 0 in
02:09 77.7 °F 71.1 °F 29.8 in NO 3 mph 5.2 mph 80% 0 in
02:14 77.5 °F 71.1 °F 29.8 in NO 2.9 mph 5 mph 80% 0 in
02:19 77.5 °F 70.9 °F 29.8 in NO 2.9 mph 5 mph 80% 0 in
02:24 77.5 °F 71.1 °F 29.8 in NO 2.9 mph 5 mph 80% 0 in
02:29 77.7 °F 71.1 °F 29.8 in ONO 2.7 mph 4 mph 80% 0 in
02:34 77.7 °F 71.2 °F 29.8 in Oeste 2.4 mph 4.7 mph 80.3% 0 in
02:39 77.7 °F 71.4 °F 29.8 in Oeste 2.5 mph 5.9 mph 81% 0 in
02:44 77.5 °F 71.2 °F 29.8 in Oeste 2.9 mph 6 mph 81% 0 in
02:49 77.5 °F 71.2 °F 29.8 in OSO 2.7 mph 5 mph 81% 0 in
02:54 77.7 °F 71.4 °F 29.8 in Oeste 2.4 mph 4.7 mph 81% 0 in
02:59 77.5 °F 71.2 °F 29.8 in Oeste 2.5 mph 5 mph 81% 0 in
03:04 77.5 °F 71.2 °F 29.8 in Oeste 2.9 mph 5.2 mph 81% 0 in
03:09 77.5 °F 71.2 °F 29.8 in Oeste 2.9 mph 5 mph 81% 0 in
03:14 77.7 °F 71.4 °F 29.8 in Oeste 2.9 mph 5 mph 81% 0 in
03:19 77.7 °F 71.4 °F 29.8 in Oeste 2.7 mph 5.2 mph 81% 0 in
03:24 77.5 °F 71.2 °F 29.8 in Oeste 2.4 mph 5 mph 81% 0 in
03:29 77.5 °F 71.2 °F 29.8 in OSO 2.3 mph 5.2 mph 81% 0 in
03:34 77.7 °F 71.4 °F 29.8 in OSO 2 mph 5.9 mph 81% 0 in
03:39 77.7 °F 71.4 °F 29.8 in OSO 2.5 mph 6.2 mph 81% 0 in
03:44 77.9 °F 71.6 °F 29.8 in SO 3.6 mph 6.9 mph 81% 0 in
03:49 78.1 °F 71.4 °F 29.8 in Oeste 3.7 mph 7 mph 80.4% 0 in
03:54 77.9 °F 71.2 °F 29.8 in OSO 4 mph 7 mph 80% 0 in
03:59 77.9 °F 71.2 °F 29.8 in OSO 4.1 mph 7 mph 80% 0 in
04:04 77.7 °F 71.1 °F 29.8 in OSO 4.3 mph 8.1 mph 80% 0 in
04:09 77.7 °F 71.2 °F 29.8 in OSO 4.3 mph 8.1 mph 80.7% 0 in
04:14 77.7 °F 71.2 °F 29.8 in OSO 4.3 mph 8 mph 80.2% 0 in
04:19 77.7 °F 71.1 °F 29.8 in OSO 4.3 mph 7.4 mph 80.3% 0 in
04:24 77.5 °F 71.2 °F 29.8 in OSO 4.3 mph 8.7 mph 80.8% 0 in
04:29 77.5 °F 70.9 °F 29.8 in OSO 4.4 mph 9.2 mph 80% 0 in
04:34 77.5 °F 70.9 °F 29.8 in OSO 4.7 mph 8.7 mph 80% 0 in
04:39 77.5 °F 70.9 °F 29.8 in OSO 4.6 mph 9.2 mph 80% 0 in
04:44 77.5 °F 70.9 °F 29.8 in SO 4.3 mph 8.1 mph 80% 0 in
04:49 77.4 °F 70.7 °F 29.8 in SO 4.4 mph 8 mph 80% 0 in
04:54 77.4 °F 70.7 °F 29.8 in SO 4.7 mph 8.1 mph 80% 0 in
04:59 77.2 °F 70.5 °F 29.8 in SO 4.8 mph 8.1 mph 80% 0 in
05:04 77.2 °F 70.5 °F 29.8 in OSO 5.2 mph 8 mph 80% 0 in
05:09 77.2 °F 70.5 °F 29.8 in SO 5 mph 9.2 mph 80% 0 in
05:14 77 °F 70.3 °F 29.8 in SO 4.7 mph 9.2 mph 80% 0 in
05:19 76.8 °F 70.3 °F 29.8 in SO 4.9 mph 9 mph 80% 0 in
05:24 76.8 °F 70.2 °F 29.8 in SO 5.4 mph 8.1 mph 80% 0 in
05:29 76.6 °F 70.2 °F 29.8 in SO 5.2 mph 8 mph 80% 0 in
05:34 76.6 °F 70 °F 29.8 in SO 4.7 mph 8.1 mph 80% 0 in
05:39 76.6 °F 70 °F 29.8 in SO 4.7 mph 8 mph 80% 0 in
05:44 76.6 °F 70 °F 29.8 in SO 4.7 mph 7.4 mph 80% 0 in
05:49 76.6 °F 70 °F 29.8 in SO 4.5 mph 7 mph 80% 0 in
05:54 76.5 °F 69.8 °F 29.8 in SSO 4 mph 10.4 mph 79.6% 0 in
05:59 76.5 °F 69.8 °F 29.8 in SSO 4.4 mph 10 mph 79.8% 0 in
06:04 76.5 °F 69.8 °F 29.8 in SSO 5.2 mph 9.2 mph 80% 0 in
06:09 76.5 °F 69.8 °F 29.8 in SSO 5.2 mph 9 mph 80% 0 in
06:14 76.5 °F 69.8 °F 29.8 in SSO 5.2 mph 9.2 mph 80% 0 in
06:19 76.5 °F 69.8 °F 29.8 in SSO 5.4 mph 9.7 mph 80% 0 in
06:24 76.5 °F 69.8 °F 29.8 in SSO 5.9 mph 10 mph 80% 0 in
06:29 76.5 °F 69.8 °F 29.8 in SO 5.7 mph 9.2 mph 80% 0 in
06:34 76.5 °F 69.6 °F 29.8 in SO 5.4 mph 9.7 mph 79.4% 0 in
06:39 76.5 °F 69.6 °F 29.8 in SO 5.4 mph 10 mph 79% 0 in
06:44 76.6 °F 69.8 °F 29.8 in SO 5.4 mph 10.4 mph 79.5% 0 in
06:49 76.6 °F 70 °F 29.8 in SO 5.3 mph 10 mph 80% 0 in
06:54 76.6 °F 70 °F 29.8 in SO 5.2 mph 8.5 mph 80% 0 in
06:59 76.6 °F 70 °F 29.8 in SO 4.9 mph 9 mph 80% 0 in
07:04 76.6 °F 70 °F 29.8 in OSO 4.3 mph 7 mph 80% 0 in
07:09 76.5 °F 69.8 °F 29.8 in Oeste 3.9 mph 5 mph 80% 0 in
07:14 76.5 °F 69.8 °F 29.8 in Oeste 2.9 mph 5 mph 80% 0 in
07:19 76.3 °F 69.6 °F 29.8 in Oeste 2.9 mph 5.2 mph 80% 0 in
07:24 75.9 °F 69.4 °F 29.8 in Oeste 2.9 mph 5.2 mph 80% 0 in
07:29 75.9 °F 69.1 °F 29.8 in OSO 2.9 mph 5.2 mph 79.6% 0 in
07:34 76.1 °F 68.7 °F 29.8 in SO 2.9 mph 6.2 mph 78.1% 0 in
07:39 76.5 °F 68.5 °F 29.8 in SO 2.9 mph 7.4 mph 76.7% 0 in
07:44 76.6 °F 68 °F 29.8 in SO 3.1 mph 7 mph 75.1% 0 in
07:49 76.8 °F 67.6 °F 29.8 in OSO 3.2 mph 8.1 mph 73.3% 0 in
07:54 77 °F 67.5 °F 29.8 in OSO 3.6 mph 8 mph 72.4% 0 in
07:59 77.4 °F 67.3 °F 29.8 in SO 3.4 mph 5.2 mph 71.3% 0 in
08:04 77.5 °F 67.1 °F 29.8 in SO 2.9 mph 5 mph 70.4% 0 in
08:09 77.7 °F 66.7 °F 29.8 in SO 2.9 mph 5.9 mph 69% 0 in
08:14 77.9 °F 66.4 °F 29.8 in SO 2.9 mph 7.4 mph 67.9% 0 in
08:19 78.1 °F 66.7 °F 29.8 in SSO 3.1 mph 7 mph 68% 0 in
08:24 78.3 °F 66.7 °F 29.8 in SO 3.6 mph 6 mph 67.8% 0 in
08:29 78.4 °F 66.6 °F 29.8 in SO 3.4 mph 6.2 mph 67% 0 in
08:34 78.4 °F 66.2 °F 29.8 in SSO 3.1 mph 6.2 mph 66.1% 0 in
08:39 78.6 °F 66.2 °F 29.8 in SSO 3.1 mph 6 mph 65.6% 0 in
08:44 79 °F 66 °F 29.8 in Sur 3.1 mph 6.9 mph 64.7% 0 in
08:49 79 °F 65.8 °F 29.8 in SSE 3.6 mph 9.2 mph 64.2% 0 in
08:54 79 °F 65.5 °F 29.8 in SSE 4.7 mph 9.2 mph 63.4% 0 in
08:59 79 °F 65.3 °F 29.8 in Sur 5.3 mph 9.2 mph 63% 0 in
09:04 79.2 °F 65.1 °F 29.8 in Sur 6.4 mph 9 mph 62.1% 0 in
09:09 79.3 °F 64.8 °F 29.8 in Sur 6.3 mph 9 mph 60.8% 0 in
09:14 79.9 °F 64.6 °F 29.8 in SSO 5.9 mph 8.5 mph 59.7% 0 in
09:19 80.2 °F 64.2 °F 29.8 in SSO 5.9 mph 9.2 mph 58.3% 0 in
09:24 80.6 °F 63.9 °F 29.8 in SSO 5.9 mph 9.2 mph 57.1% 0 in
09:29 81 °F 63.5 °F 29.8 in SSO 6 mph 9.2 mph 55.4% 0 in
09:34 81.3 °F 63 °F 29.8 in SSO 6.2 mph 9 mph 53.9% 0 in
09:39 81.9 °F 62.4 °F 29.8 in SSO 5.9 mph 9.2 mph 51.9% 0 in
09:44 82.4 °F 62.1 °F 29.8 in OSO 5.2 mph 9 mph 50.4% 0 in
09:49 82.8 °F 61.5 °F 29.8 in SO 5 mph 8 mph 48.9% 0 in
09:54 83.1 °F 61 °F 29.8 in SSO 4.7 mph 8.5 mph 47.2% 0 in
09:59 83.5 °F 61.2 °F 29.8 in OSO 4.7 mph 9 mph 47% 0 in
10:04 83.7 °F 60.6 °F 29.8 in OSO 4.7 mph 11.8 mph 46% 0 in
10:09 84 °F 60.3 °F 29.8 in OSO 4.6 mph 12 mph 44.7% 0 in
10:14 84.7 °F 59 °F 29.8 in Oeste 4.3 mph 12.7 mph 42% 0 in
10:19 85.5 °F 59 °F 29.8 in Oeste 4.9 mph 13 mph 41% 0 in
10:24 85.6 °F 58.1 °F 29.8 in Oeste 6.2 mph 15 mph 39.2% 0 in
10:29 86 °F 57.7 °F 29.8 in Oeste 6.6 mph 15 mph 38.6% 0 in
10:34 86.2 °F 57.7 °F 29.8 in Oeste 7.6 mph 14 mph 38.3% 0 in
10:39 86.5 °F 57.9 °F 29.8 in Oeste 7.5 mph 14 mph 37.9% 0 in
10:44 86.7 °F 57.2 °F 29.8 in Oeste 7.4 mph 14 mph 36.9% 0 in
10:49 86.9 °F 56.3 °F 29.8 in ONO 8 mph 20.7 mph 35.5% 0 in
10:54 86.9 °F 56.1 °F 29.8 in ONO 9.2 mph 21 mph 35% 0 in
10:59 87.3 °F 56.3 °F 29.8 in Oeste 9.9 mph 18.4 mph 35% 0 in
11:03 87.4 °F 56.5 °F 29.8 in Oeste 11.2 mph 24.8 mph 34.9% 0 in
11:14 87.6 °F 55.8 °F 29.8 in ONO 12.3 mph 24.2 mph 34% 0 in
11:19 88 °F 56.1 °F 29.8 in ONO 12.2 mph 24 mph 34% 0 in
11:24 88.2 °F 56.1 °F 29.8 in Oeste 11.8 mph 22 mph 33.9% 0 in
11:29 88.2 °F 56.3 °F 29.8 in Oeste 11.2 mph 18 mph 34% 0 in
11:34 88.2 °F 56.1 °F 29.8 in Oeste 9.7 mph 22.5 mph 33.7% 0 in
11:39 88.2 °F 55.8 °F 29.8 in ONO 10.1 mph 23 mph 33.4% 0 in
11:44 88.3 °F 56.3 °F 29.8 in Oeste 11.4 mph 22.3 mph 34% 0 in
11:49 88.3 °F 55.9 °F 29.8 in ONO 11.7 mph 24.2 mph 33.5% 0 in
11:51 88.2 °F 56.3 °F 29.8 in ONO 12.5 mph 24 mph 34% 0 in
12:44 89.6 °F 55 °F 29.8 in ONO 12.3 mph 18.4 mph 31% 0 in
12:49 90 °F 54.7 °F 29.8 in NO 12.3 mph 25.3 mph 30.3% 0 in
12:54 90.5 °F 54.9 °F 29.8 in NO 12.3 mph 25 mph 30% 0 in
12:59 91 °F 54.9 °F 29.8 in ONO 11.2 mph 19 mph 29.6% 0 in
13:04 90.9 °F 54.1 °F 29.8 in ONO 8.7 mph 19.7 mph 28.9% 0 in
13:09 90.9 °F 54.1 °F 29.8 in Oeste 9.1 mph 20 mph 28.9% 0 in
13:14 91 °F 53.6 °F 29.8 in ONO 10 mph 18.4 mph 28.3% 0 in
13:19 91.2 °F 53.6 °F 29.8 in ONO 10.2 mph 19.6 mph 28% 0 in
13:24 91.6 °F 53.8 °F 29.8 in NO 10.7 mph 20 mph 28% 0 in
13:29 92.1 °F 53.1 °F 29.8 in ONO 10.4 mph 21.3 mph 26.8% 0 in
13:34 91.8 °F 53.4 °F 29.8 in ONO 9.7 mph 21 mph 27.3% 0 in
13:39 91.8 °F 54 °F 29.8 in ONO 9.8 mph 16.3 mph 28% 0 in
13:44 91.9 °F 52.7 °F 29.8 in ONO 10 mph 19.2 mph 26.6% 0 in
13:49 92.3 °F 52.5 °F 29.8 in ONO 10.3 mph 20.8 mph 26% 0 in
13:54 92.7 °F 52.9 °F 29.8 in NO 11.2 mph 21 mph 26.1% 0 in
13:59 92.8 °F 52.9 °F 29.8 in NO 10.9 mph 19.7 mph 26% 0 in
14:04 93.2 °F 53.6 °F 29.8 in ONO 10.2 mph 20 mph 26.4% 0 in
14:09 93.6 °F 53.6 °F 29.8 in ONO 10.1 mph 18.4 mph 26% 0 in
14:14 93.6 °F 52.5 °F 29.8 in ONO 9.7 mph 18 mph 25.1% 0 in
14:19 93.6 °F 51.4 °F 29.8 in NO 9.8 mph 19 mph 24.2% 0 in
14:24 93.9 °F 51.3 °F 29.8 in ONO 10.2 mph 19 mph 23.7% 0 in
14:29 94.3 °F 52.3 °F 29.8 in NO 9.5 mph 16.1 mph 24.4% 0 in
14:34 94.3 °F 52.3 °F 29.8 in ONO 7.6 mph 16 mph 24.4% 0 in
14:39 94.5 °F 52.5 °F 29.8 in Oeste 7.3 mph 14 mph 24.5% 0 in
14:44 94.6 °F 52.3 °F 29.8 in NO 6.4 mph 16.1 mph 24.1% 0 in
14:49 94.6 °F 52.3 °F 29.8 in ONO 6.9 mph 16 mph 24% 0 in
14:54 94.8 °F 52.5 °F 29.8 in Oeste 8.1 mph 16.1 mph 24% 0 in
14:59 95.4 °F 52.9 °F 29.8 in NO 8 mph 16 mph 24% 0 in
15:04 95.4 °F 53.1 °F 29.8 in NNE 7.6 mph 14 mph 24.1% 0 in
15:09 95.4 °F 52.9 °F 29.8 in NO 7 mph 17.3 mph 24% 0 in
15:14 95.4 °F 52.5 °F 29.8 in ONO 5.4 mph 17 mph 23.7% 0 in
15:19 95.2 °F 52.7 °F 29.8 in Oeste 6.3 mph 17.3 mph 24% 0 in
15:24 95.4 °F 52.5 °F 29.8 in ONO 8.5 mph 17 mph 23.7% 0 in
15:29 95.7 °F 52.9 °F 29.8 in NO 7.9 mph 15 mph 23.7% 0 in
15:34 95.5 °F 52.7 °F 29.8 in ONO 6.4 mph 15 mph 23.7% 0 in
15:39 95.9 °F 53.4 °F 29.8 in NO 6.3 mph 15.6 mph 24% 0 in
15:44 96.3 °F 53.6 °F 29.8 in Oeste 5.9 mph 18.4 mph 24% 0 in
15:49 96.4 °F 52.9 °F 29.8 in ONO 6.3 mph 18 mph 23.2% 0 in
15:54 96.4 °F 53.4 °F 29.7 in SO 7.4 mph 9 mph 23.6% 0 in
15:59 97.2 °F 53.6 °F 29.7 in ONO 6.5 mph 15.2 mph 23.4% 0 in
16:04 97 °F 53.8 °F 29.7 in NNO 4.7 mph 15 mph 23.6% 0 in
16:09 96.8 °F 54 °F 29.7 in NNE 5.7 mph 15 mph 23.9% 0 in
16:14 96.6 °F 54 °F 29.7 in North 8.1 mph 14 mph 24% 0 in
16:19 96.8 °F 54 °F 29.7 in ONO 7.8 mph 16.1 mph 24% 0 in
16:24 96.6 °F 54 °F 29.7 in Oeste 6.9 mph 17.3 mph 24% 0 in
16:29 96.6 °F 54 °F 29.7 in ONO 7.4 mph 17 mph 24% 0 in
16:34 96.8 °F 54 °F 29.7 in NO 8.7 mph 15 mph 23.9% 0 in
16:39 97.2 °F 53.8 °F 29.7 in NO 8.4 mph 14 mph 23.6% 0 in
16:44 97.3 °F 53.6 °F 29.7 in ONO 7.6 mph 13 mph 23.1% 0 in
16:49 97.7 °F 53.6 °F 29.7 in NO 7.4 mph 13.8 mph 23% 0 in
16:54 97.3 °F 53.2 °F 29.7 in ONO 6.9 mph 15.2 mph 23% 0 in
16:59 97.3 °F 53.8 °F 29.7 in NNO 6.4 mph 15 mph 23.3% 0 in
17:04 97.5 °F 53.8 °F 29.7 in NNE 5.2 mph 7 mph 23.2% 0 in
17:09 97.7 °F 54.3 °F 29.7 in NO 5.3 mph 17.3 mph 23.6% 0 in
17:14 97.5 °F 54 °F 29.7 in ONO 5.4 mph 17 mph 23.4% 0 in
17:19 97.7 °F 54.1 °F 29.7 in NO 5.7 mph 12 mph 23.4% 0 in
17:24 98.1 °F 53.8 °F 29.7 in NO 6.2 mph 11.5 mph 23% 0 in
17:29 98.2 °F 54 °F 29.7 in ONO 6.2 mph 13.5 mph 23% 0 in
17:34 98.2 °F 54 °F 29.7 in ONO 6.2 mph 13 mph 23% 0 in
17:39 98.2 °F 54 °F 29.7 in ONO 6.3 mph 13 mph 22.9% 0 in
17:44 98.2 °F 53.8 °F 29.7 in NO 6.4 mph 13.5 mph 22.8% 0 in
17:49 98.6 °F 53.2 °F 29.7 in ONO 6.3 mph 14 mph 22.1% 0 in
17:54 98.8 °F 55.2 °F 29.7 in NNO 6.2 mph 17.3 mph 23.6% 0 in
17:59 98.1 °F 58.3 °F 29.7 in NE 6.9 mph 17.3 mph 27% 0 in
18:04 97 °F 58.5 °F 29.7 in NE 8.5 mph 18.4 mph 27.9% 0 in
18:09 96.6 °F 58.8 °F 29.7 in NE 9.3 mph 18.5 mph 28.7% 0 in
18:14 96.4 °F 59 °F 29.7 in NE 11.4 mph 19 mph 29% 0 in
18:19 96.3 °F 58.3 °F 29.7 in NE 11.1 mph 19.6 mph 28.5% 0 in
18:24 96.3 °F 57.9 °F 29.7 in Este 10.2 mph 20 mph 28.1% 0 in
18:29 96.3 °F 57.9 °F 29.7 in NE 9.8 mph 17.3 mph 28% 0 in
18:34 95.7 °F 57.4 °F 29.7 in Este 8.7 mph 16.1 mph 28% 0 in
18:39 95.5 °F 57.2 °F 29.7 in Este 8.7 mph 16 mph 28.1% 0 in
18:44 95.5 °F 57.2 °F 29.7 in ESE 8.7 mph 20.8 mph 28.1% 0 in
18:49 95.2 °F 57 °F 29.7 in SE 9.6 mph 23 mph 28.1% 0 in
18:54 95.2 °F 57 °F 29.7 in SE 11.8 mph 23 mph 28% 0 in
18:59 95.4 °F 57 °F 29.7 in SE 11.6 mph 18.5 mph 28% 0 in
19:04 95.2 °F 56.8 °F 29.7 in SE 11.2 mph 19 mph 28% 0 in
19:09 95.2 °F 56.8 °F 29.7 in SE 10.9 mph 17.3 mph 28% 0 in
19:14 95.2 °F 56.8 °F 29.7 in SE 10 mph 20.7 mph 28% 0 in
19:19 94.8 °F 56.7 °F 29.7 in SE 10.1 mph 21 mph 28% 0 in
19:24 94.8 °F 56.7 °F 29.7 in SE 10.2 mph 16 mph 28% 0 in
19:29 94.8 °F 56.7 °F 29.7 in ESE 9.6 mph 15.2 mph 28% 0 in
19:34 94.6 °F 56.5 °F 29.7 in SE 8.1 mph 15.2 mph 28% 0 in
19:39 94.5 °F 56.3 °F 29.7 in SE 8.3 mph 15 mph 28.1% 0 in
19:44 94.3 °F 56.1 °F 29.7 in SE 8.7 mph 16.1 mph 28% 0 in
19:49 94.1 °F 56.1 °F 29.7 in SE 8.3 mph 16 mph 28% 0 in
19:54 93.9 °F 56.1 °F 29.7 in ESE 7.4 mph 13 mph 28.3% 0 in
19:59 93.7 °F 55.8 °F 29.7 in SE 7.4 mph 13.8 mph 28% 0 in
20:04 93.4 °F 56.3 °F 29.8 in ESE 7.4 mph 14 mph 28.9% 0 in
20:09 93.2 °F 56.1 °F 29.8 in ESE 7.7 mph 15 mph 29% 0 in
20:14 92.8 °F 55.9 °F 29.8 in ESE 8.5 mph 15 mph 29% 0 in
20:19 92.8 °F 56.5 °F 29.8 in ESE 8.2 mph 13 mph 29.6% 0 in
20:24 92.3 °F 56.5 °F 29.8 in Este 7.4 mph 13 mph 30% 0 in
20:29 92.1 °F 56.1 °F 29.8 in NE 7 mph 10 mph 30% 0 in
20:34 91.8 °F 58.1 °F 29.8 in NE 5.9 mph 15.6 mph 32.5% 0 in
20:39 90.3 °F 63.1 °F 29.8 in NE 6.5 mph 16.1 mph 40.5% 0 in
20:44 88.5 °F 64.2 °F 29.8 in NE 8.1 mph 17.3 mph 44.8% 0 in
20:49 87.4 °F 64.4 °F 29.8 in NE 8.6 mph 17 mph 46.6% 0 in
20:54 86.7 °F 65.5 °F 29.8 in NE 10 mph 20.7 mph 49.3% 0 in
20:59 85.6 °F 66 °F 29.8 in NE 10.4 mph 21 mph 52% 0 in
21:04 84.7 °F 66.2 °F 29.8 in NNE 11.4 mph 20 mph 53.6% 0 in
21:09 84.2 °F 66.4 °F 29.8 in NE 12.1 mph 20 mph 55.2% 0 in
21:14 83.8 °F 66.9 °F 29.8 in NNE 13.5 mph 19 mph 56.7% 0 in
21:19 83.5 °F 67.3 °F 29.8 in NNE 13 mph 19 mph 58.4% 0 in
21:24 82.9 °F 67.5 °F 29.8 in NE 11.8 mph 17.3 mph 59.5% 0 in
21:29 82.8 °F 67.6 °F 29.8 in NE 11.5 mph 18.5 mph 60.5% 0 in
21:34 82.2 °F 67.6 °F 29.8 in NNE 10.7 mph 19 mph 61.6% 0 in
21:39 81.9 °F 67.8 °F 29.8 in NNE 10.8 mph 18 mph 62.6% 0 in
21:44 81.7 °F 68 °F 29.8 in NE 11.2 mph 19.6 mph 63.5% 0 in
21:49 81.1 °F 68.4 °F 29.8 in NE 11.4 mph 20 mph 64.8% 0 in
21:54 81.1 °F 68.5 °F 29.8 in NE 11.8 mph 20.7 mph 65.8% 0 in
21:59 81 °F 68.5 °F 29.8 in NE 11.2 mph 21 mph 66.2% 0 in
22:04 80.8 °F 68.7 °F 29.8 in NE 10.2 mph 17.3 mph 67% 0 in
22:09 80.6 °F 68.9 °F 29.8 in NE 10.5 mph 20.8 mph 67.9% 0 in
22:14 80.2 °F 69.1 °F 29.8 in NNE 11.2 mph 26.1 mph 69% 0 in
22:19 80.1 °F 69.3 °F 29.8 in NE 11.9 mph 26.5 mph 70% 0 in
22:24 79.9 °F 69.6 °F 29.8 in NE 13.5 mph 26 mph 71% 0 in
22:29 79.9 °F 69.6 °F 29.8 in NE 12.5 mph 16 mph 71% 0 in
22:34 79.7 °F 69.4 °F 29.8 in NE 9.7 mph 16.3 mph 71% 0 in
22:39 79.5 °F 69.6 °F 29.8 in NE 10 mph 19 mph 71.8% 0 in
22:44 79.3 °F 69.6 °F 29.8 in NE 10.7 mph 19 mph 72% 0 in
22:49 79.3 °F 69.8 °F 29.8 in NE 10.8 mph 20.7 mph 72.6% 0 in
22:54 79.2 °F 70.2 °F 29.8 in NE 11.2 mph 21 mph 74.3% 0 in
22:59 78.8 °F 70.3 °F 29.8 in NE 11.6 mph 21 mph 75.5% 0 in
23:04 78.6 °F 70.3 °F 29.8 in NE 12.5 mph 18.4 mph 76% 0 in
23:09 78.6 °F 70.3 °F 29.8 in NE 12 mph 18.4 mph 76% 0 in
23:14 78.4 °F 70.2 °F 29.8 in NE 10.7 mph 18.1 mph 76% 0 in
23:19 78.4 °F 70.2 °F 29.8 in NE 10.4 mph 18.4 mph 76% 0 in
23:24 78.4 °F 70.3 °F 29.8 in NE 9.7 mph 17 mph 76% 0 in
23:29 78.4 °F 70 °F 29.8 in NE 9.7 mph 16.3 mph 75.1% 0 in
23:34 78.4 °F 70 °F 29.8 in NE 9.7 mph 16 mph 75% 0 in
23:39 78.6 °F 70 °F 29.8 in NE 9.1 mph 13 mph 75% 0 in
23:44 78.4 °F 70 °F 29.8 in NE 7.4 mph 15.2 mph 75% 0 in
23:49 78.4 °F 70 °F 29.8 in NE 7.6 mph 15 mph 75% 0 in
23:54 78.4 °F 70 °F 29.8 in NE 8.1 mph 15 mph 75.6% 0 in
23:59 78.3 °F 70.2 °F 29.8 in NE 8.3 mph 15 mph 76.3% 0 in
Murcia-Puente Tocinos, España
Compliments of Weather Underground - 2.75 mb

La estación de MeteoMurcia.com, publica sus datos en los siguientes proyectos:

Weather Underground PWS IMURCIAP2 Meteoclimatic www.awekas.at

W3Counter
Web Analytics